Time;durP1;ratioP1;P1;durP2;ratioP2;P2;SDS_P1;SDS_P2;PMS_P1;PMS_P2;Temp;Humidity;BMP_temperature;BMP_pressure;BME280_temperature;BME280_humidity;BME280_pressure;Samples;Min_cycle;Max_cycle;Signal;HPM_P1;HPM_P2
2022/03/18 00:00:00;;;;;;;0.00;0.00;;;;;;;;;;1723664;28;20208;-76
2022/03/18 00:00:53;;;;;;;0.00;0.00;;;;;;;;;;1719761;28;20228;-76
2022/03/18 00:01:44;;;;;;;0.00;0.00;;;;;;;;;;1724984;28;20779;-76
2022/03/18 00:02:35;;;;;;;0.20;0.20;;;;;;;;;;1723688;28;20516;-77
2022/03/18 00:03:28;;;;;;;0.00;0.00;;;;;;;;;;1724886;28;20248;-77
2022/03/18 00:04:19;;;;;;;0.00;0.00;;;;;;;;;;1722254;28;20197;-77
2022/03/18 00:05:11;;;;;;;0.05;0.05;;;;;;;;;;1725999;28;20231;-77
2022/03/18 00:06:03;;;;;;;0.10;0.10;;;;;;;;;;1724873;28;20232;-77
2022/03/18 00:06:56;;;;;;;0.10;0.10;;;;;;;;;;1725646;28;20208;-77
2022/03/18 00:07:47;;;;;;;0.00;0.00;;;;;;;;;;1727557;28;20235;-77
2022/03/18 00:08:39;;;;;;;0.00;0.00;;;;;;;;;;1727791;28;20550;-77
2022/03/18 00:09:31;;;;;;;0.17;0.17;;;;;;;;;;1725682;28;20220;-76
2022/03/18 00:10:23;;;;;;;0.00;0.00;;;;;;;;;;1721226;28;20201;-77
2022/03/18 00:11:15;;;;;;;0.00;0.00;;;;;;;;;;1725040;28;20573;-76
2022/03/18 00:12:08;;;;;;;0.00;0.00;;;;;;;;;;1726021;28;20196;-76
2022/03/18 00:13:01;;;;;;;0.10;0.10;;;;;;;;;;1724339;28;20208;-76
2022/03/18 00:13:53;;;;;;;0.20;0.20;;;;;;;;;;1720395;28;20213;-76
2022/03/18 00:14:44;;;;;;;0.05;0.05;;;;;;;;;;1721401;28;20209;-76
2022/03/18 00:15:37;;;;;;;0.20;0.20;;;;;;;;;;1724514;28;20242;-77
2022/03/18 00:16:28;;;;;;;0.10;0.10;;;;;;;;;;1721219;28;20781;-77
2022/03/18 00:17:20;;;;;;;0.15;0.15;;;;;;;;;;1725656;28;20204;-77
2022/03/18 00:18:11;;;;;;;0.00;0.00;;;;;;;;;;1722397;28;20193;-76
2022/03/18 00:19:03;;;;;;;0.00;0.00;;;;;;;;;;1724989;28;20228;-76
2022/03/18 00:19:55;;;;;;;0.00;0.00;;;;;;;;;;1724175;28;20204;-77
2022/03/18 00:20:47;;;;;;;0.00;0.00;;;;;;;;;;1723817;28;20247;-77
2022/03/18 00:21:38;;;;;;;0.00;0.00;;;;;;;;;;1723039;28;20212;-76
2022/03/18 00:22:30;;;;;;;0.00;0.00;;;;;;;;;;1721709;28;20232;-76
2022/03/18 00:23:21;;;;;;;0.00;0.00;;;;;;;;;;1723667;28;20219;-76
2022/03/18 00:24:14;;;;;;;0.10;0.10;;;;;;;;;;1723767;28;20514;-76
2022/03/18 00:25:06;;;;;;;0.00;0.00;;;;;;;;;;1724650;28;20208;-76
2022/03/18 00:25:58;;;;;;;0.00;0.00;;;;;;;;;;1723405;28;20227;-77
2022/03/18 00:26:49;;;;;;;0.00;0.00;;;;;;;;;;1721803;28;20208;-77
2022/03/18 00:27:43;;;;;;;0.10;0.10;;;;;;;;;;1725252;28;20212;-77
2022/03/18 00:28:37;;;;;;;0.00;0.00;;;;;;;;;;1724970;28;20543;-77
2022/03/18 00:29:29;;;;;;;0.10;0.10;;;;;;;;;;1724788;28;20213;-77
2022/03/18 00:30:20;;;;;;;0.20;0.20;;;;;;;;;;1722144;28;20393;-76
2022/03/18 00:31:13;;;;;;;0.10;0.10;;;;;;;;;;1723518;28;20682;-76
2022/03/18 00:32:05;;;;;;;0.00;0.00;;;;;;;;;;1725450;28;20216;-76
2022/03/18 00:32:57;;;;;;;0.00;0.00;;;;;;;;;;1722920;28;20206;-75
2022/03/18 00:33:48;;;;;;;0.10;0.10;;;;;;;;;;1726566;28;20212;-76
2022/03/18 00:34:40;;;;;;;0.10;0.10;;;;;;;;;;1723807;28;20242;-76
2022/03/18 00:35:32;;;;;;;0.10;0.10;;;;;;;;;;1722036;28;20339;-77
2022/03/18 00:36:24;;;;;;;0.00;0.00;;;;;;;;;;1722489;28;20605;-77
2022/03/18 00:37:15;;;;;;;0.10;0.10;;;;;;;;;;1725087;28;20208;-76
2022/03/18 00:38:07;;;;;;;0.30;0.30;;;;;;;;;;1721280;28;20215;-76
2022/03/18 00:39:00;;;;;;;0.00;0.00;;;;;;;;;;1720526;28;20418;-76
2022/03/18 00:39:52;;;;;;;0.00;0.00;;;;;;;;;;1722613;28;20241;-76
2022/03/18 00:40:44;;;;;;;0.00;0.00;;;;;;;;;;1722751;28;20247;-75
2022/03/18 00:41:36;;;;;;;0.00;0.00;;;;;;;;;;1724661;28;20251;-76
2022/03/18 00:42:28;;;;;;;0.10;0.10;;;;;;;;;;1725134;28;20207;-76
2022/03/18 00:43:20;;;;;;;0.20;0.20;;;;;;;;;;1723213;28;20230;-76
2022/03/18 00:44:14;;;;;;;0.10;0.10;;;;;;;;;;1717860;28;20201;-76
2022/03/18 00:45:07;;;;;;;0.10;0.10;;;;;;;;;;1721008;28;20654;-76
2022/03/18 00:45:58;;;;;;;0.10;0.10;;;;;;;;;;1722287;28;20246;-77
2022/03/18 00:46:50;;;;;;;0.10;0.10;;;;;;;;;;1724749;28;20622;-76
2022/03/18 00:52:25;;;;;;;0.10;0.10;;;;;;;;;;1719484;28;20240;-76
2022/03/18 00:53:16;;;;;;;0.00;0.00;;;;;;;;;;1722314;28;20571;-77
2022/03/18 00:54:08;;;;;;;0.00;0.00;;;;;;;;;;1722343;28;20204;-77
2022/03/18 00:54:59;;;;;;;0.10;0.10;;;;;;;;;;1722800;28;20208;-76
2022/03/18 00:55:51;;;;;;;0.00;0.00;;;;;;;;;;1717235;28;20224;-77
2022/03/18 00:56:43;;;;;;;0.03;0.03;;;;;;;;;;1722896;28;20523;-76
2022/03/18 00:57:35;;;;;;;0.00;0.00;;;;;;;;;;1726286;28;20295;-77
2022/03/18 00:58:26;;;;;;;0.10;0.10;;;;;;;;;;1724122;28;20200;-77
2022/03/18 00:59:20;;;;;;;0.20;0.20;;;;;;;;;;1719130;28;20339;-76
2022/03/18 01:00:12;;;;;;;0.00;0.00;;;;;;;;;;1724131;28;20578;-77
2022/03/18 01:01:04;;;;;;;0.10;0.10;;;;;;;;;;1720731;28;20234;-77
2022/03/18 01:01:56;;;;;;;0.00;0.00;;;;;;;;;;1728414;28;20243;-76
2022/03/18 01:02:48;;;;;;;0.10;0.10;;;;;;;;;;1727476;28;20491;-76
2022/03/18 01:03:39;;;;;;;0.05;0.05;;;;;;;;;;1727346;28;20203;-77
2022/03/18 01:04:31;;;;;;;0.03;0.03;;;;;;;;;;1723951;28;20197;-76
2022/03/18 01:05:23;;;;;;;0.00;0.00;;;;;;;;;;1728845;28;20203;-76
2022/03/18 01:06:15;;;;;;;0.20;0.20;;;;;;;;;;1730261;28;20234;-76
2022/03/18 01:07:06;;;;;;;0.00;0.00;;;;;;;;;;1731386;28;20692;-76
2022/03/18 01:07:58;;;;;;;0.00;0.00;;;;;;;;;;1731114;28;20208;-76
2022/03/18 01:08:49;;;;;;;0.08;0.08;;;;;;;;;;1731763;28;20208;-76
2022/03/18 01:09:41;;;;;;;0.00;0.00;;;;;;;;;;1726241;28;20212;-76
2022/03/18 01:10:33;;;;;;;0.10;0.10;;;;;;;;;;1723019;28;20247;-76
2022/03/18 01:11:25;;;;;;;0.00;0.00;;;;;;;;;;1724916;28;20200;-76
2022/03/18 01:12:16;;;;;;;0.00;0.00;;;;;;;;;;1732120;28;20543;-76
2022/03/18 01:13:09;;;;;;;0.05;0.05;;;;;;;;;;1727540;28;20208;-76
2022/03/18 01:14:00;;;;;;;0.10;0.10;;;;;;;;;;1726558;28;20215;-76
2022/03/18 01:14:54;;;;;;;0.10;0.10;;;;;;;;;;1730795;28;20458;-76
2022/03/18 01:15:45;;;;;;;0.10;0.10;;;;;;;;;;1729720;28;20232;-76
2022/03/18 01:16:37;;;;;;;0.15;0.15;;;;;;;;;;1728790;28;20207;-76
2022/03/18 01:17:28;;;;;;;0.10;0.10;;;;;;;;;;1727229;28;20208;-76
2022/03/18 01:18:21;;;;;;;0.20;0.20;;;;;;;;;;1730651;28;20286;-76
2022/03/18 01:19:12;;;;;;;0.00;0.00;;;;;;;;;;1732478;28;20447;-76
2022/03/18 01:20:05;;;;;;;0.30;0.30;;;;;;;;;;1729775;28;20204;-76
2022/03/18 01:20:56;;;;;;;0.10;0.10;;;;;;;;;;1731494;28;20235;-76
2022/03/18 01:21:48;;;;;;;0.10;0.10;;;;;;;;;;1731557;28;20616;-76
2022/03/18 01:22:40;;;;;;;0.10;0.10;;;;;;;;;;1732293;28;20452;-76
2022/03/18 01:23:32;;;;;;;0.00;0.00;;;;;;;;;;1731028;28;20511;-76
2022/03/18 01:24:24;;;;;;;0.10;0.10;;;;;;;;;;1733387;28;20223;-76
2022/03/18 01:25:17;;;;;;;0.10;0.10;;;;;;;;;;1729473;28;20203;-77
2022/03/18 01:26:09;;;;;;;0.10;0.10;;;;;;;;;;1733351;28;20688;-76
2022/03/18 01:27:01;;;;;;;0.10;0.10;;;;;;;;;;1734314;28;20200;-76
2022/03/18 01:27:52;;;;;;;0.00;0.00;;;;;;;;;;1730531;28;20274;-75
2022/03/18 01:28:43;;;;;;;0.00;0.00;;;;;;;;;;1732773;28;20610;-76
2022/03/18 01:29:36;;;;;;;0.17;0.17;;;;;;;;;;1734380;28;20211;-76
2022/03/18 01:30:29;;;;;;;0.00;0.00;;;;;;;;;;1725577;28;20227;-76
2022/03/18 01:31:22;;;;;;;0.10;0.10;;;;;;;;;;1730850;28;20199;-76
2022/03/18 01:32:13;;;;;;;0.00;0.00;;;;;;;;;;1733629;28;20206;-76
2022/03/18 01:33:05;;;;;;;0.00;0.00;;;;;;;;;;1727893;28;20572;-76
2022/03/18 01:33:56;;;;;;;0.10;0.10;;;;;;;;;;1728135;28;20204;-76
2022/03/18 01:34:49;;;;;;;0.10;0.10;;;;;;;;;;1727362;28;20270;-76
2022/03/18 01:35:40;;;;;;;0.10;0.10;;;;;;;;;;1726582;28;20243;-76
2022/03/18 01:36:32;;;;;;;0.10;0.10;;;;;;;;;;1734234;28;20269;-76
2022/03/18 01:37:23;;;;;;;0.10;0.10;;;;;;;;;;1734399;28;20212;-76
2022/03/18 01:38:15;;;;;;;0.10;0.10;;;;;;;;;;1731314;28;20638;-76
2022/03/18 01:39:07;;;;;;;0.10;0.10;;;;;;;;;;1734249;28;20200;-76
2022/03/18 01:39:59;;;;;;;0.20;0.20;;;;;;;;;;1730571;28;20820;-76
2022/03/18 01:40:51;;;;;;;0.00;0.00;;;;;;;;;;1730942;28;20616;-77
2022/03/18 01:41:43;;;;;;;0.20;0.20;;;;;;;;;;1729820;28;20214;-76
2022/03/18 01:42:34;;;;;;;0.10;0.10;;;;;;;;;;1733199;28;20207;-76
2022/03/18 01:43:27;;;;;;;0.00;0.00;;;;;;;;;;1728404;28;20685;-76
2022/03/18 01:44:19;;;;;;;0.10;0.10;;;;;;;;;;1725937;28;20244;-76
2022/03/18 01:45:11;;;;;;;0.10;0.10;;;;;;;;;;1729405;28;20601;-76
2022/03/18 01:46:05;;;;;;;0.00;0.00;;;;;;;;;;1730622;28;20231;-76
2022/03/18 01:46:57;;;;;;;0.20;0.20;;;;;;;;;;1732405;28;20526;-76
2022/03/18 01:47:48;;;;;;;0.10;0.10;;;;;;;;;;1730809;28;20213;-76
2022/03/18 01:48:40;;;;;;;0.30;0.30;;;;;;;;;;1733165;28;20521;-76
2022/03/18 01:49:32;;;;;;;0.05;0.05;;;;;;;;;;1732525;28;20208;-76
2022/03/18 01:50:24;;;;;;;0.00;0.00;;;;;;;;;;1729101;28;20207;-76
2022/03/18 01:51:15;;;;;;;0.10;0.10;;;;;;;;;;1726247;28;20223;-76
2022/03/18 01:52:09;;;;;;;0.10;0.10;;;;;;;;;;1726689;28;20493;-76
2022/03/18 01:53:00;;;;;;;0.00;0.00;;;;;;;;;;1730121;28;20203;-76
2022/03/18 01:54:44;;;;;;;0.05;0.05;;;;;;;;;;1732226;28;20227;-76
2022/03/18 01:55:04;;;;;;;0.15;0.15;;;;;;;;;;1732417;28;20227;-76
2022/03/18 01:55:56;;;;;;;0.15;0.15;;;;;;;;;;1729132;28;20542;-76
2022/03/18 01:56:48;;;;;;;0.25;0.25;;;;;;;;;;1728544;28;20629;-76
2022/03/18 01:57:43;;;;;;;0.20;0.20;;;;;;;;;;1726568;28;20201;-76
2022/03/18 01:58:34;;;;;;;0.00;0.00;;;;;;;;;;1730402;28;20208;-76
2022/03/18 01:59:26;;;;;;;0.20;0.20;;;;;;;;;;1730759;28;20207;-76
2022/03/18 02:00:21;;;;;;;0.20;0.20;;;;;;;;;;1724994;28;20200;-76
2022/03/18 02:01:15;;;;;;;0.20;0.20;;;;;;;;;;1728566;28;20226;-76
2022/03/18 02:02:06;;;;;;;0.00;0.00;;;;;;;;;;1730102;28;20200;-76
2022/03/18 02:02:58;;;;;;;0.00;0.00;;;;;;;;;;1729617;28;20701;-76
2022/03/18 02:03:50;;;;;;;0.10;0.10;;;;;;;;;;1734373;28;20203;-76
2022/03/18 02:04:42;;;;;;;0.00;0.00;;;;;;;;;;1730258;28;20199;-76
2022/03/18 02:05:34;;;;;;;0.00;0.00;;;;;;;;;;1729768;28;20311;-77
2022/03/18 02:06:26;;;;;;;0.00;0.00;;;;;;;;;;1731498;28;20231;-77
2022/03/18 02:07:18;;;;;;;0.10;0.10;;;;;;;;;;1733745;28;20645;-76
2022/03/18 02:08:10;;;;;;;0.10;0.10;;;;;;;;;;1731779;28;20222;-76
2022/03/18 02:09:02;;;;;;;0.10;0.10;;;;;;;;;;1726772;28;20645;-76
2022/03/18 02:09:54;;;;;;;0.10;0.10;;;;;;;;;;1729335;28;20558;-76
2022/03/18 02:10:45;;;;;;;0.00;0.00;;;;;;;;;;1731479;28;20251;-76
2022/03/18 02:11:38;;;;;;;0.00;0.00;;;;;;;;;;1731372;28;20212;-76
2022/03/18 02:12:29;;;;;;;0.10;0.10;;;;;;;;;;1727618;28;20242;-76
2022/03/18 02:13:21;;;;;;;0.15;0.15;;;;;;;;;;1730797;28;20207;-76
2022/03/18 02:14:12;;;;;;;0.00;0.00;;;;;;;;;;1734838;28;20688;-76
2022/03/18 02:15:05;;;;;;;0.08;0.08;;;;;;;;;;1732095;28;20231;-76
2022/03/18 02:15:56;;;;;;;0.00;0.00;;;;;;;;;;1730792;28;20246;-77
2022/03/18 02:16:49;;;;;;;0.10;0.10;;;;;;;;;;1732676;28;20327;-76
2022/03/18 02:17:40;;;;;;;0.10;0.10;;;;;;;;;;1733143;28;20211;-76
2022/03/18 02:18:33;;;;;;;0.00;0.00;;;;;;;;;;1730609;28;20261;-76
2022/03/18 02:19:24;;;;;;;0.10;0.10;;;;;;;;;;1732394;28;20230;-76
2022/03/18 02:20:19;;;;;;;0.10;0.10;;;;;;;;;;1730455;28;20196;-76
2022/03/18 02:21:13;;;;;;;0.15;0.15;;;;;;;;;;1731973;28;20297;-76
2022/03/18 02:22:08;;;;;;;0.15;0.15;;;;;;;;;;1731933;28;20291;-76
2022/03/18 02:23:01;;;;;;;0.00;0.00;;;;;;;;;;1732608;28;20204;-76
2022/03/18 02:23:53;;;;;;;0.10;0.10;;;;;;;;;;1727815;28;20386;-76
2022/03/18 02:24:45;;;;;;;0.00;0.00;;;;;;;;;;1730381;28;20212;-76
2022/03/18 02:25:37;;;;;;;0.00;0.00;;;;;;;;;;1730523;28;20246;-76
2022/03/18 02:26:30;;;;;;;0.20;0.20;;;;;;;;;;1730775;28;20622;-76
2022/03/18 02:27:22;;;;;;;0.10;0.10;;;;;;;;;;1733076;28;20196;-76
2022/03/18 02:28:14;;;;;;;0.00;0.00;;;;;;;;;;1731076;28;20200;-76
2022/03/18 02:29:06;;;;;;;0.00;0.00;;;;;;;;;;1733017;28;20635;-77
2022/03/18 02:29:57;;;;;;;0.00;0.00;;;;;;;;;;1731464;28;20469;-76
2022/03/18 02:30:49;;;;;;;0.00;0.00;;;;;;;;;;1729736;28;20310;-76
2022/03/18 02:31:40;;;;;;;0.10;0.10;;;;;;;;;;1728091;28;20288;-76
2022/03/18 02:32:34;;;;;;;0.00;0.00;;;;;;;;;;1731973;28;20204;-76
2022/03/18 02:33:25;;;;;;;0.10;0.10;;;;;;;;;;1732570;28;20263;-76
2022/03/18 02:34:17;;;;;;;0.10;0.10;;;;;;;;;;1732927;28;20231;-76
2022/03/18 02:35:08;;;;;;;0.10;0.10;;;;;;;;;;1729590;28;20238;-76
2022/03/18 02:36:01;;;;;;;0.10;0.10;;;;;;;;;;1730124;28;20227;-76
2022/03/18 02:36:52;;;;;;;0.10;0.10;;;;;;;;;;1732616;28;20207;-76
2022/03/18 02:37:44;;;;;;;0.00;0.00;;;;;;;;;;1732375;28;20211;-75
2022/03/18 02:38:37;;;;;;;0.00;0.00;;;;;;;;;;1733933;28;20545;-76
2022/03/18 02:39:29;;;;;;;0.10;0.10;;;;;;;;;;1733814;28;20203;-76
2022/03/18 02:40:20;;;;;;;0.10;0.10;;;;;;;;;;1724776;28;20594;-76
2022/03/18 02:41:13;;;;;;;0.00;0.00;;;;;;;;;;1729349;28;20192;-76
2022/03/18 02:42:04;;;;;;;0.10;0.10;;;;;;;;;;1729733;28;20208;-76
2022/03/18 02:42:58;;;;;;;0.15;0.15;;;;;;;;;;1729402;28;20530;-76
2022/03/18 02:43:49;;;;;;;0.00;0.00;;;;;;;;;;1729776;28;20554;-76
2022/03/18 02:44:41;;;;;;;0.00;0.00;;;;;;;;;;1731663;28;20511;-76
2022/03/18 02:45:32;;;;;;;0.10;0.10;;;;;;;;;;1727095;28;20243;-76
2022/03/18 02:46:24;;;;;;;0.10;0.10;;;;;;;;;;1729430;28;20208;-76
2022/03/18 02:47:16;;;;;;;0.03;0.03;;;;;;;;;;1733705;28;20533;-76
2022/03/18 02:48:08;;;;;;;0.00;0.00;;;;;;;;;;1731869;28;20210;-75
2022/03/18 02:49:00;;;;;;;0.10;0.10;;;;;;;;;;1727437;28;20204;-76
2022/03/18 02:49:52;;;;;;;0.03;0.03;;;;;;;;;;1729447;28;20615;-76
2022/03/18 02:50:43;;;;;;;0.20;0.20;;;;;;;;;;1731292;28;20231;-77
2022/03/18 02:51:37;;;;;;;0.00;0.00;;;;;;;;;;1728715;28;20631;-76
2022/03/18 02:52:29;;;;;;;0.10;0.10;;;;;;;;;;1727765;28;20647;-76
2022/03/18 02:53:21;;;;;;;0.10;0.10;;;;;;;;;;1730175;28;20299;-76
2022/03/18 02:54:13;;;;;;;0.10;0.10;;;;;;;;;;1731257;28;20625;-76
2022/03/18 02:55:06;;;;;;;0.03;0.03;;;;;;;;;;1731590;28;20231;-76
2022/03/18 02:55:57;;;;;;;0.08;0.08;;;;;;;;;;1730571;28;20246;-76
2022/03/18 02:56:49;;;;;;;0.00;0.00;;;;;;;;;;1728537;28;20231;-76
2022/03/18 02:57:41;;;;;;;0.10;0.10;;;;;;;;;;1732370;28;20255;-76
2022/03/18 02:58:34;;;;;;;0.10;0.10;;;;;;;;;;1732314;28;20251;-76
2022/03/18 02:59:25;;;;;;;0.25;0.25;;;;;;;;;;1728960;28;20315;-76
2022/03/18 03:00:25;;;;;;;0.10;0.10;;;;;;;;;;1727039;28;20204;-76
2022/03/18 03:01:18;;;;;;;0.00;0.00;;;;;;;;;;1731547;28;20204;-76
2022/03/18 03:02:12;;;;;;;0.08;0.08;;;;;;;;;;1726115;28;20196;-76
2022/03/18 03:03:03;;;;;;;0.20;0.20;;;;;;;;;;1724166;28;20227;-76
2022/03/18 03:03:55;;;;;;;0.05;0.05;;;;;;;;;;1725040;28;20201;-76
2022/03/18 03:08:16;;;;;;;0.05;0.05;;;;;;;;;;1720556;28;20210;-76
2022/03/18 03:09:08;;;;;;;0.10;0.10;;;;;;;;;;1724934;28;20214;-76
2022/03/18 03:10:01;;;;;;;0.10;0.10;;;;;;;;;;1724411;28;20547;-76
2022/03/18 03:10:53;;;;;;;0.10;0.10;;;;;;;;;;1723490;28;20240;-76
2022/03/18 03:11:45;;;;;;;0.10;0.10;;;;;;;;;;1725390;28;20204;-76
2022/03/18 03:12:37;;;;;;;0.10;0.10;;;;;;;;;;1725759;28;20891;-76
2022/03/18 03:13:28;;;;;;;0.00;0.00;;;;;;;;;;1725316;28;20204;-77
2022/03/18 03:14:21;;;;;;;0.10;0.10;;;;;;;;;;1725090;28;20204;-77
2022/03/18 03:15:12;;;;;;;0.00;0.00;;;;;;;;;;1721187;28;20251;-76
2022/03/18 03:16:05;;;;;;;0.10;0.10;;;;;;;;;;1723902;28;20299;-77
2022/03/18 03:16:56;;;;;;;0.20;0.20;;;;;;;;;;1723691;28;20219;-77
2022/03/18 03:17:49;;;;;;;0.20;0.20;;;;;;;;;;1720236;28;20611;-77
2022/03/18 03:18:40;;;;;;;0.25;0.25;;;;;;;;;;1724192;28;20208;-77
2022/03/18 03:19:32;;;;;;;0.10;0.10;;;;;;;;;;1721769;28;20212;-77
2022/03/18 03:20:23;;;;;;;0.00;0.00;;;;;;;;;;1722012;28;20216;-76
2022/03/18 03:21:16;;;;;;;0.10;0.10;;;;;;;;;;1727995;28;20212;-77
2022/03/18 03:22:07;;;;;;;0.00;0.00;;;;;;;;;;1724071;28;20209;-77
2022/03/18 03:22:59;;;;;;;0.30;0.30;;;;;;;;;;1725396;28;20272;-77
2022/03/18 03:23:50;;;;;;;0.10;0.10;;;;;;;;;;1726046;28;20219;-77
2022/03/18 03:24:42;;;;;;;0.10;0.10;;;;;;;;;;1727255;28;20307;-77
2022/03/18 03:25:35;;;;;;;0.10;0.10;;;;;;;;;;1719165;28;20240;-77
2022/03/18 03:26:27;;;;;;;0.00;0.00;;;;;;;;;;1723881;28;20254;-76
2022/03/18 03:27:18;;;;;;;0.08;0.08;;;;;;;;;;1721612;28;20205;-77
2022/03/18 03:28:11;;;;;;;0.00;0.00;;;;;;;;;;1720592;28;20304;-77
2022/03/18 03:29:02;;;;;;;0.00;0.00;;;;;;;;;;1726796;28;20197;-76
2022/03/18 03:29:54;;;;;;;0.20;0.20;;;;;;;;;;1721762;28;20204;-76
2022/03/18 03:30:46;;;;;;;0.10;0.10;;;;;;;;;;1723210;28;20236;-77
2022/03/18 03:31:38;;;;;;;0.20;0.20;;;;;;;;;;1721650;28;20683;-77
2022/03/18 03:32:29;;;;;;;0.10;0.10;;;;;;;;;;1724611;28;20273;-77
2022/03/18 03:33:21;;;;;;;0.20;0.20;;;;;;;;;;1724797;28;20626;-77
2022/03/18 03:34:14;;;;;;;0.10;0.10;;;;;;;;;;1725173;28;20204;-77
2022/03/18 03:35:08;;;;;;;0.10;0.10;;;;;;;;;;1724835;28;20655;-77
2022/03/18 03:35:59;;;;;;;0.10;0.10;;;;;;;;;;1722854;28;20263;-77
2022/03/18 03:36:52;;;;;;;0.13;0.13;;;;;;;;;;1725375;28;20208;-77
2022/03/18 03:37:43;;;;;;;0.00;0.00;;;;;;;;;;1724112;28;20296;-77
2022/03/18 03:38:35;;;;;;;0.10;0.10;;;;;;;;;;1721493;28;20216;-77
2022/03/18 03:39:27;;;;;;;0.20;0.20;;;;;;;;;;1721055;28;20211;-77
2022/03/18 03:40:24;;;;;;;0.17;0.17;;;;;;;;;;1722137;28;20208;-77
2022/03/18 03:41:21;;;;;;;0.10;0.10;;;;;;;;;;1723549;28;20220;-77
2022/03/18 03:42:15;;;;;;;0.10;0.10;;;;;;;;;;1718887;28;20260;-77
2022/03/18 03:43:08;;;;;;;0.10;0.10;;;;;;;;;;1718743;28;20205;-77
2022/03/18 03:44:00;;;;;;;0.10;0.10;;;;;;;;;;1725036;28;20200;-77
2022/03/18 03:44:51;;;;;;;0.10;0.10;;;;;;;;;;1719762;28;20205;-76
2022/03/18 03:45:44;;;;;;;0.10;0.10;;;;;;;;;;1718116;28;20244;-76
2022/03/18 03:46:35;;;;;;;0.30;0.30;;;;;;;;;;1722232;28;20577;-76
2022/03/18 03:47:28;;;;;;;0.10;0.10;;;;;;;;;;1724784;28;20230;-76
2022/03/18 03:48:19;;;;;;;0.10;0.10;;;;;;;;;;1724881;28;20265;-77
2022/03/18 03:49:11;;;;;;;0.17;0.17;;;;;;;;;;1725022;28;20205;-77
2022/03/18 03:50:02;;;;;;;0.13;0.13;;;;;;;;;;1724093;28;20200;-77
2022/03/18 03:50:54;;;;;;;0.10;0.10;;;;;;;;;;1723500;28;20232;-76
2022/03/18 03:51:46;;;;;;;0.10;0.10;;;;;;;;;;1721575;28;20650;-76
2022/03/18 03:52:38;;;;;;;0.15;0.15;;;;;;;;;;1723510;28;20204;-77
2022/03/18 03:53:29;;;;;;;0.00;0.00;;;;;;;;;;1720325;28;20200;-77
2022/03/18 03:54:23;;;;;;;0.20;0.20;;;;;;;;;;1721562;28;20291;-76
2022/03/18 03:55:15;;;;;;;0.10;0.10;;;;;;;;;;1719264;28;20209;-77
2022/03/18 03:56:07;;;;;;;0.30;0.30;;;;;;;;;;1722850;28;20692;-77
2022/03/18 03:56:59;;;;;;;0.10;0.10;;;;;;;;;;1722247;28;20476;-76
2022/03/18 03:57:52;;;;;;;0.20;0.20;;;;;;;;;;1723018;28;20239;-77
2022/03/18 03:58:43;;;;;;;0.20;0.20;;;;;;;;;;1725609;28;20204;-77
2022/03/18 03:59:35;;;;;;;0.00;0.00;;;;;;;;;;1722059;28;20208;-77
2022/03/18 04:00:26;;;;;;;0.00;0.00;;;;;;;;;;1718374;28;20532;-77
2022/03/18 04:01:18;;;;;;;0.10;0.10;;;;;;;;;;1724044;28;20235;-77
2022/03/18 04:02:11;;;;;;;0.10;0.10;;;;;;;;;;1730629;28;20209;-77
2022/03/18 04:03:04;;;;;;;0.25;0.25;;;;;;;;;;1730654;28;21005;-77
2022/03/18 04:03:56;;;;;;;0.10;0.10;;;;;;;;;;1727103;28;20200;-77
2022/03/18 04:04:47;;;;;;;0.10;0.10;;;;;;;;;;1730799;28;20542;-77
2022/03/18 04:05:39;;;;;;;0.10;0.10;;;;;;;;;;1730048;28;20249;-77
2022/03/18 04:06:30;;;;;;;0.10;0.10;;;;;;;;;;1730955;28;20222;-77
2022/03/18 04:07:21;;;;;;;0.10;0.10;;;;;;;;;;1732263;28;20199;-77
2022/03/18 04:08:14;;;;;;;0.08;0.08;;;;;;;;;;1728589;28;20285;-77
2022/03/18 04:09:05;;;;;;;0.00;0.00;;;;;;;;;;1732172;28;20345;-76
2022/03/18 04:09:58;;;;;;;0.03;0.03;;;;;;;;;;1731272;28;20531;-76
2022/03/18 04:10:49;;;;;;;0.13;0.13;;;;;;;;;;1730606;28;20238;-76
2022/03/18 04:11:41;;;;;;;0.10;0.10;;;;;;;;;;1730078;28;20207;-76
2022/03/18 04:12:34;;;;;;;0.10;0.10;;;;;;;;;;1732306;28;20207;-76
2022/03/18 04:13:26;;;;;;;0.10;0.10;;;;;;;;;;1728055;28;20261;-76
2022/03/18 04:14:17;;;;;;;0.10;0.10;;;;;;;;;;1727614;28;20620;-76
2022/03/18 04:15:10;;;;;;;0.20;0.20;;;;;;;;;;1730815;28;20287;-76
2022/03/18 04:16:02;;;;;;;0.10;0.10;;;;;;;;;;1729839;28;20608;-77
2022/03/18 04:16:54;;;;;;;0.05;0.05;;;;;;;;;;1729634;28;20257;-76
2022/03/18 04:17:46;;;;;;;0.17;0.17;;;;;;;;;;1730067;28;20521;-76
2022/03/18 04:18:38;;;;;;;0.15;0.15;;;;;;;;;;1729097;28;20616;-76
2022/03/18 04:19:29;;;;;;;0.20;0.20;;;;;;;;;;1730980;28;20203;-76
2022/03/18 04:20:22;;;;;;;0.20;0.20;;;;;;;;;;1729446;28;20269;-76
2022/03/18 04:21:14;;;;;;;0.10;0.10;;;;;;;;;;1730247;28;20210;-76
2022/03/18 04:22:06;;;;;;;0.10;0.10;;;;;;;;;;1730976;28;20207;-76
2022/03/18 04:22:57;;;;;;;0.10;0.10;;;;;;;;;;1731568;28;20207;-76
2022/03/18 04:23:49;;;;;;;0.10;0.10;;;;;;;;;;1726228;28;20231;-76
2022/03/18 04:24:41;;;;;;;0.10;0.10;;;;;;;;;;1726029;28;20208;-76
2022/03/18 04:25:33;;;;;;;0.10;0.10;;;;;;;;;;1729491;28;20337;-76
2022/03/18 04:26:24;;;;;;;0.30;0.30;;;;;;;;;;1731423;28;20579;-76
2022/03/18 04:27:16;;;;;;;0.28;0.28;;;;;;;;;;1732487;28;20218;-76
2022/03/18 04:28:09;;;;;;;0.20;0.20;;;;;;;;;;1726558;28;20216;-76
2022/03/18 04:29:01;;;;;;;0.00;0.00;;;;;;;;;;1732138;28;20291;-76
2022/03/18 04:29:53;;;;;;;0.20;0.20;;;;;;;;;;1731073;28;20210;-76
2022/03/18 04:30:45;;;;;;;0.20;0.20;;;;;;;;;;1730256;28;20357;-76
2022/03/18 04:31:36;;;;;;;0.00;0.00;;;;;;;;;;1730836;28;20289;-76
2022/03/18 04:32:29;;;;;;;0.10;0.10;;;;;;;;;;1728161;28;20594;-76
2022/03/18 04:33:20;;;;;;;0.00;0.00;;;;;;;;;;1729074;28;20211;-76
2022/03/18 04:34:12;;;;;;;0.00;0.00;;;;;;;;;;1732746;28;20226;-76
2022/03/18 04:35:04;;;;;;;0.00;0.00;;;;;;;;;;1731396;28;20526;-76
2022/03/18 04:35:56;;;;;;;0.17;0.17;;;;;;;;;;1730599;28;20567;-76
2022/03/18 04:36:48;;;;;;;0.10;0.10;;;;;;;;;;1731591;28;20207;-76
2022/03/18 04:37:40;;;;;;;0.13;0.13;;;;;;;;;;1730525;28;20537;-76
2022/03/18 04:38:32;;;;;;;0.10;0.10;;;;;;;;;;1728357;28;20673;-76
2022/03/18 04:39:24;;;;;;;0.08;0.08;;;;;;;;;;1725600;28;20816;-76
2022/03/18 04:40:18;;;;;;;0.10;0.10;;;;;;;;;;1727511;28;20923;-77
2022/03/18 04:41:09;;;;;;;0.20;0.20;;;;;;;;;;1730776;28;20246;-76
2022/03/18 04:42:01;;;;;;;0.10;0.10;;;;;;;;;;1731474;28;20206;-76
2022/03/18 04:42:52;;;;;;;0.20;0.20;;;;;;;;;;1727802;28;20215;-76
2022/03/18 04:43:46;;;;;;;0.10;0.10;;;;;;;;;;1730031;28;20410;-76
2022/03/18 04:44:38;;;;;;;0.10;0.10;;;;;;;;;;1727339;28;20256;-76
2022/03/18 04:45:30;;;;;;;0.10;0.10;;;;;;;;;;1724742;28;20531;-76
2022/03/18 04:46:22;;;;;;;0.05;0.05;;;;;;;;;;1730439;28;20207;-76
2022/03/18 04:47:14;;;;;;;0.10;0.10;;;;;;;;;;1730906;28;20246;-76
2022/03/18 04:48:05;;;;;;;0.10;0.10;;;;;;;;;;1731254;28;20203;-76
2022/03/18 04:48:57;;;;;;;0.10;0.10;;;;;;;;;;1726444;28;20233;-76
2022/03/18 04:49:49;;;;;;;0.08;0.08;;;;;;;;;;1731292;28;20215;-76
2022/03/18 04:50:41;;;;;;;0.00;0.00;;;;;;;;;;1729906;28;20576;-77
2022/03/18 04:51:32;;;;;;;0.10;0.10;;;;;;;;;;1730983;28;20208;-76
2022/03/18 04:52:23;;;;;;;0.03;0.03;;;;;;;;;;1731861;28;20229;-76
2022/03/18 04:53:15;;;;;;;0.20;0.20;;;;;;;;;;1728880;28;20211;-76
2022/03/18 04:54:06;;;;;;;0.10;0.10;;;;;;;;;;1732939;28;20625;-76
2022/03/18 04:54:59;;;;;;;0.10;0.10;;;;;;;;;;1732508;28;20708;-76
2022/03/18 04:55:50;;;;;;;0.15;0.15;;;;;;;;;;1724937;28;20549;-76
2022/03/18 04:57:52;;;;;;;0.43;0.43;;;;;;;;;;1731106;28;20229;-76
2022/03/18 04:58:45;;;;;;;0.10;0.10;;;;;;;;;;1732196;28;20549;-76
2022/03/18 04:59:37;;;;;;;0.10;0.10;;;;;;;;;;1731907;28;20619;-76
2022/03/18 05:00:28;;;;;;;0.10;0.10;;;;;;;;;;1730084;28;20203;-76
2022/03/18 05:01:20;;;;;;;0.20;0.20;;;;;;;;;;1731724;28;20305;-76
2022/03/18 05:02:11;;;;;;;0.10;0.10;;;;;;;;;;1726991;28;20223;-76
2022/03/18 05:03:04;;;;;;;0.20;0.20;;;;;;;;;;1725305;28;20199;-76
2022/03/18 05:03:58;;;;;;;0.10;0.10;;;;;;;;;;1725891;28;20238;-75
2022/03/18 05:04:50;;;;;;;0.20;0.20;;;;;;;;;;1726029;28;20211;-75
2022/03/18 05:05:42;;;;;;;0.10;0.10;;;;;;;;;;1724654;28;20255;-75
2022/03/18 05:06:34;;;;;;;0.10;0.10;;;;;;;;;;1725789;28;20664;-76
2022/03/18 05:07:26;;;;;;;0.00;0.00;;;;;;;;;;1726641;28;20214;-76
2022/03/18 05:08:18;;;;;;;0.08;0.08;;;;;;;;;;1723308;28;20211;-76
2022/03/18 05:09:09;;;;;;;0.15;0.15;;;;;;;;;;1725948;28;20540;-76
2022/03/18 05:10:01;;;;;;;0.00;0.00;;;;;;;;;;1721438;28;20704;-76
2022/03/18 05:10:53;;;;;;;0.10;0.10;;;;;;;;;;1724173;28;20231;-75
2022/03/18 05:11:45;;;;;;;0.20;0.20;;;;;;;;;;1725177;28;20304;-75
2022/03/18 05:12:37;;;;;;;0.00;0.00;;;;;;;;;;1725892;28;20211;-76
2022/03/18 05:13:29;;;;;;;0.10;0.10;;;;;;;;;;1723407;28;20208;-76
2022/03/18 05:14:21;;;;;;;0.00;0.00;;;;;;;;;;1720341;28;20215;-76
2022/03/18 05:15:14;;;;;;;0.00;0.00;;;;;;;;;;1720560;28;20208;-77
2022/03/18 05:16:06;;;;;;;0.10;0.10;;;;;;;;;;1718999;28;20239;-76
2022/03/18 05:16:57;;;;;;;0.10;0.10;;;;;;;;;;1726073;28;20204;-76
2022/03/18 05:17:54;;;;;;;0.00;0.00;;;;;;;;;;1725835;28;20199;-75
2022/03/18 05:18:45;;;;;;;0.20;0.20;;;;;;;;;;1722699;28;20527;-75
2022/03/18 05:19:37;;;;;;;0.05;0.05;;;;;;;;;;1719317;28;20289;-75
2022/03/18 05:20:29;;;;;;;0.20;0.20;;;;;;;;;;1723950;28;20215;-75
2022/03/18 05:21:21;;;;;;;0.10;0.10;;;;;;;;;;1725923;28;20204;-76